Time;durP1;ratioP1;P1;durP2;ratioP2;P2;SDS_P1;SDS_P2;PMS_P1;PMS_P2;Temp;Humidity;BMP_temperature;BMP_pressure;BME280_temperature;BME280_humidity;BME280_pressure;Samples;Min_cycle;Max_cycle;Signal;HPM_P1;HPM_P2
2023/05/23 00:01:45;;;;;;;0.40;0.40;;;;;;;15.56;100.00;99162.50;4974285;28;20218;-60
2023/05/23 00:04:15;;;;;;;0.53;0.53;;;;;;;15.54;100.00;99161.75;4974051;28;20207;-60
2023/05/23 00:06:45;;;;;;;0.60;0.60;;;;;;;15.57;100.00;99165.00;4974212;28;20203;-60
2023/05/23 00:09:12;;;;;;;0.50;0.50;;;;;;;15.62;100.00;99162.16;4973783;28;20227;-60
2023/05/23 00:11:43;;;;;;;0.50;0.50;;;;;;;15.60;100.00;99159.69;4973619;28;20211;-60
2023/05/23 00:14:12;;;;;;;0.53;0.53;;;;;;;15.58;100.00;99158.91;4974161;28;20318;-60
2023/05/23 00:16:41;;;;;;;0.50;0.50;;;;;;;15.58;100.00;99156.34;4972677;28;20203;-59
2023/05/23 00:19:09;;;;;;;0.50;0.50;;;;;;;15.54;100.00;99149.66;4974011;28;20198;-60
2023/05/23 00:21:36;;;;;;;0.50;0.50;;;;;;;15.57;100.00;99153.84;4973872;28;20234;-60
2023/05/23 00:24:04;;;;;;;0.40;0.40;;;;;;;15.46;100.00;99136.31;4972132;28;20721;-60
2023/05/23 00:26:30;;;;;;;0.50;0.50;;;;;;;15.48;100.00;99142.25;4957549;28;20735;-61
2023/05/23 00:28:58;;;;;;;0.60;0.60;;;;;;;15.37;100.00;99134.22;4961181;28;20932;-60
2023/05/23 00:31:24;;;;;;;0.50;0.50;;;;;;;15.52;100.00;99148.91;4966035;28;20704;-60
2023/05/23 00:33:53;;;;;;;0.53;0.53;;;;;;;15.58;100.00;99151.16;4960407;28;20764;-60
2023/05/23 00:36:21;;;;;;;0.40;0.40;;;;;;;15.48;100.00;99137.06;4964076;28;20207;-61
2023/05/23 00:38:48;;;;;;;0.70;0.70;;;;;;;15.58;100.00;99153.75;4972211;28;20290;-60
2023/05/23 00:41:15;;;;;;;0.50;0.50;;;;;;;15.48;100.00;99134.50;4962656;28;20250;-59
2023/05/23 00:43:41;;;;;;;0.40;0.40;;;;;;;15.60;100.00;99154.53;4955860;28;20203;-61
2023/05/23 00:46:09;;;;;;;0.50;0.50;;;;;;;15.64;100.00;99161.16;4964273;28;20299;-60
2023/05/23 00:48:37;;;;;;;0.60;0.60;;;;;;;15.67;100.00;99158.41;4962796;28;20302;-62
2023/05/23 00:51:06;;;;;;;0.50;0.50;;;;;;;15.62;100.00;99147.50;4966727;28;20218;-60
2023/05/23 00:53:33;;;;;;;0.40;0.40;;;;;;;15.64;100.00;99145.66;4962358;28;20582;-60
2023/05/23 00:56:00;;;;;;;0.50;0.50;;;;;;;15.62;100.00;99147.50;4959617;28;20696;-59
2023/05/23 00:58:27;;;;;;;0.50;0.50;;;;;;;15.62;100.00;99147.50;4967123;28;20690;-60
2023/05/23 01:00:54;;;;;;;0.40;0.40;;;;;;;15.67;100.00;99142.91;4959193;28;20200;-60
2023/05/23 01:03:22;;;;;;;0.50;0.50;;;;;;;15.69;100.00;99145.41;4962705;28;20221;-61
2023/05/23 01:05:49;;;;;;;0.40;0.40;;;;;;;15.68;100.00;99128.25;4958429;28;20202;-61
2023/05/23 01:08:17;;;;;;;0.50;0.50;;;;;;;15.72;100.00;99143.50;4960903;28;20200;-59
2023/05/23 01:10:44;;;;;;;0.70;0.70;;;;;;;15.73;100.00;99136.59;4969232;28;20215;-60
2023/05/23 01:13:21;;;;;;;0.57;0.57;;;;;;;15.65;100.00;99115.50;4961273;28;20253;-60
2023/05/23 01:15:55;;;;;;;0.60;0.60;;;;;;;15.79;100.00;99132.81;4957450;28;20673;-60
2023/05/23 01:18:27;;;;;;;0.50;0.50;;;;;;;15.75;100.00;99137.31;4966168;28;20294;-60
2023/05/23 01:20:56;;;;;;;0.43;0.43;;;;;;;15.67;100.00;99132.56;4968753;28;20286;-59
2023/05/23 01:23:47;;;;;;;0.50;0.50;;;;;;;15.61;100.00;99125.16;4959683;28;20217;-60
2023/05/23 01:26:31;;;;;;;0.50;0.50;;;;;;;15.60;100.00;99128.69;4952370;28;20208;-60
2023/05/23 01:29:09;;;;;;;0.40;0.40;;;;;;;15.62;100.00;99126.84;4951349;29;20235;-60
2023/05/23 01:31:37;;;;;;;0.57;0.57;;;;;;;15.50;100.00;99111.16;4953496;28;20218;-60
2023/05/23 01:34:06;;;;;;;0.50;0.50;;;;;;;15.56;100.00;99121.16;4953350;29;20262;-60
2023/05/23 01:36:35;;;;;;;0.50;0.50;;;;;;;15.48;100.00;99119.00;4953591;29;20680;-60
2023/05/23 01:39:02;;;;;;;0.50;0.50;;;;;;;15.37;100.00;99110.97;4953186;29;20302;-60
2023/05/23 01:41:29;;;;;;;0.40;0.40;;;;;;;15.23;100.00;99103.13;4953055;29;20227;-60
2023/05/23 01:43:56;;;;;;;0.40;0.40;;;;;;;15.31;100.00;99120.81;4953066;29;20207;-61
2023/05/23 01:46:24;;;;;;;0.47;0.47;;;;;;;15.30;100.00;99119.97;4953007;29;20634;-59
2023/05/23 01:48:53;;;;;;;0.40;0.40;;;;;;;15.19;100.00;99114.53;4952733;29;20220;-60
2023/05/23 01:51:21;;;;;;;0.30;0.30;;;;;;;15.15;100.00;99123.38;4952788;29;20223;-60
2023/05/23 01:53:48;;;;;;;0.40;0.40;;;;;;;15.08;100.00;99120.28;4953446;29;20207;-60
2023/05/23 01:56:15;;;;;;;0.47;0.47;;;;;;;15.04;100.00;99123.94;4952687;29;20223;-60
2023/05/23 01:58:42;;;;;;;0.40;0.40;;;;;;;15.08;100.00;99119.44;4953343;28;20201;-61
2023/05/23 02:01:09;;;;;;;0.57;0.57;;;;;;;15.09;100.00;99126.25;4952879;29;20208;-60
2023/05/23 02:03:37;;;;;;;0.50;0.50;;;;;;;15.12;100.00;99120.97;4953511;28;20207;-60
2023/05/23 02:06:04;;;;;;;0.50;0.50;;;;;;;15.17;100.00;99124.13;4952486;29;20204;-60
2023/05/23 02:08:31;;;;;;;0.50;0.50;;;;;;;15.10;100.00;99117.59;4952926;29;20218;-59
2023/05/23 02:10:58;;;;;;;0.53;0.53;;;;;;;15.03;100.00;99121.41;4952364;29;20239;-60
2023/05/23 02:13:24;;;;;;;0.47;0.47;;;;;;;14.96;100.00;99120.09;4952177;29;20204;-60
2023/05/23 02:15:51;;;;;;;0.50;0.50;;;;;;;14.85;100.00;99122.38;4953330;28;20211;-60
2023/05/23 02:18:18;;;;;;;0.50;0.50;;;;;;;14.71;100.00;99111.03;4952441;29;20583;-60
2023/05/23 02:20:46;;;;;;;0.40;0.40;;;;;;;14.69;100.00;99118.03;4952207;29;20261;-61
2023/05/23 02:23:13;;;;;;;0.50;0.50;;;;;;;14.70;100.00;99113.72;4952019;29;20298;-60
2023/05/23 02:25:40;;;;;;;0.57;0.57;;;;;;;14.70;100.00;99109.34;4957079;28;20628;-60
2023/05/23 02:28:06;;;;;;;0.40;0.40;;;;;;;14.64;100.00;99104.50;4963590;28;20615;-60
2023/05/23 02:30:33;;;;;;;0.60;0.60;;;;;;;14.64;100.00;99112.25;4957373;28;20219;-59
2023/05/23 02:33:05;;;;;;;0.50;0.50;;;;;;;14.54;100.00;99113.63;4967191;28;20214;-60
2023/05/23 02:35:31;;;;;;;0.50;0.50;;;;;;;14.47;100.00;99116.63;4958950;28;20589;-59
2023/05/23 02:38:00;;;;;;;0.57;0.57;;;;;;;14.30;100.00;99101.94;4958763;28;20685;-59
2023/05/23 02:40:26;;;;;;;0.50;0.50;;;;;;;14.27;100.00;99109.00;4958750;28;20203;-61
2023/05/23 02:42:56;;;;;;;0.50;0.50;;;;;;;14.18;100.00;99105.16;4961686;28;20207;-60
2023/05/23 02:45:22;;;;;;;0.50;0.50;;;;;;;14.08;100.00;99109.09;4965755;28;20652;-60
2023/05/23 02:47:49;;;;;;;0.50;0.50;;;;;;;14.03;100.00;99109.28;4966946;28;20199;-60
2023/05/23 02:50:16;;;;;;;0.40;0.40;;;;;;;14.04;100.00;99112.72;4956879;28;20768;-60
2023/05/23 02:52:43;;;;;;;0.50;0.50;;;;;;;14.04;100.00;99112.72;4962419;28;20291;-61
2023/05/23 02:55:11;;;;;;;0.50;0.50;;;;;;;14.08;100.00;99116.81;4957197;28;20251;-60
2023/05/23 02:57:38;;;;;;;0.60;0.60;;;;;;;14.12;100.00;99113.16;4958660;28;20204;-60
2023/05/23 03:00:08;;;;;;;0.70;0.70;;;;;;;14.13;100.00;99114.84;4955988;28;20747;-60
2023/05/23 03:02:35;;;;;;;0.40;0.40;;;;;;;14.18;100.00;99115.47;4960494;28;20730;-61
2023/05/23 03:05:02;;;;;;;0.60;0.60;;;;;;;14.22;100.00;99106.63;4959848;28;20223;-60
2023/05/23 03:07:32;;;;;;;0.60;0.60;;;;;;;14.22;100.00;99100.69;4957902;28;20287;-60
2023/05/23 03:09:59;;;;;;;0.40;0.40;;;;;;;14.29;100.00;99102.84;4962718;28;20317;-61
2023/05/23 03:12:28;;;;;;;0.37;0.37;;;;;;;14.37;100.00;99103.34;4963857;28;20219;-60
2023/05/23 03:14:54;;;;;;;0.50;0.50;;;;;;;14.39;100.00;99109.25;4963142;28;20211;-60
2023/05/23 03:17:21;;;;;;;0.50;0.50;;;;;;;14.32;100.00;99102.69;4956332;28;20663;-60
2023/05/23 03:19:48;;;;;;;0.60;0.60;;;;;;;14.37;100.00;99111.09;4958234;28;20703;-61
2023/05/23 03:22:15;;;;;;;0.60;0.60;;;;;;;14.35;100.00;99110.31;4963679;28;20674;-61
2023/05/23 03:24:41;;;;;;;0.47;0.47;;;;;;;14.27;100.00;99098.69;4961281;28;20222;-61
2023/05/23 03:27:08;;;;;;;0.40;0.40;;;;;;;14.31;100.00;99105.38;4969016;28;20200;-60
2023/05/23 03:29:37;;;;;;;0.80;0.80;;;;;;;14.26;100.00;99107.31;4967560;28;20209;-61
2023/05/23 03:32:04;;;;;;;0.40;0.40;;;;;;;14.33;100.00;99116.44;4969348;28;20799;-61
2023/05/23 03:34:31;;;;;;;0.50;0.50;;;;;;;14.36;100.00;99111.16;4972211;28;20210;-60
2023/05/23 03:36:58;;;;;;;0.33;0.33;;;;;;;14.43;100.00;99115.94;4970000;28;20222;-60
2023/05/23 03:39:25;;;;;;;0.50;0.50;;;;;;;14.50;100.00;99112.13;4969085;28;20214;-60
2023/05/23 03:41:52;;;;;;;0.33;0.33;;;;;;;14.62;100.00;99108.94;4970400;28;20215;-60
2023/05/23 03:44:19;;;;;;;0.40;0.40;;;;;;;14.75;100.00;99116.03;4971115;28;20215;-60
2023/05/23 03:46:47;;;;;;;0.70;0.70;;;;;;;14.82;100.00;99107.06;4970810;28;20203;-61
2023/05/23 03:49:14;;;;;;;0.40;0.40;;;;;;;14.79;100.00;99109.81;4971295;28;20205;-60
2023/05/23 03:51:40;;;;;;;0.50;0.50;;;;;;;14.67;100.00;99090.63;4977442;28;20247;-61
2023/05/23 03:54:07;;;;;;;0.43;0.43;;;;;;;14.87;100.00;99113.66;4971036;28;20219;-60
2023/05/23 03:56:34;;;;;;;0.50;0.50;;;;;;;14.88;100.00;99106.75;4970207;28;20207;-60
2023/05/23 03:59:01;;;;;;;0.40;0.40;;;;;;;14.90;100.00;99105.75;4973501;28;20638;-60
2023/05/23 04:01:27;;;;;;;0.60;0.60;;;;;;;15.06;100.00;99116.09;4971555;28;20782;-60
2023/05/23 04:03:56;;;;;;;0.50;0.50;;;;;;;15.20;100.00;99117.03;4973515;28;20671;-61
2023/05/23 04:06:23;;;;;;;0.40;0.40;;;;;;;15.34;100.00;99116.31;4972744;28;20204;-60
2023/05/23 04:08:50;;;;;;;0.57;0.57;;;;;;;15.53;100.00;99127.34;4973701;28;20572;-60
2023/05/23 04:11:16;;;;;;;0.50;0.50;;;;;;;15.72;100.00;99130.59;4973601;28;20251;-61
2023/05/23 04:13:45;;;;;;;0.50;0.50;;;;;;;15.94;100.00;99126.78;4974170;28;20204;-60
2023/05/23 04:16:12;;;;;;;0.40;0.40;;;;;;;16.21;100.00;99135.56;4975392;28;20583;-60
2023/05/23 04:18:39;;;;;;;0.60;0.60;;;;;;;16.43;100.00;99130.00;4973845;28;20195;-61
2023/05/23 04:21:07;;;;;;;0.70;0.70;;;;;;;16.68;100.00;99125.91;4974168;28;20216;-61
2023/05/23 04:23:35;;;;;;;0.70;0.70;;;;;;;16.82;100.00;99132.84;4973679;28;20683;-60
2023/05/23 04:26:02;;;;;;;0.57;0.57;;;;;;;16.86;100.00;99134.34;4972632;28;20223;-60
2023/05/23 04:28:29;;;;;;;0.70;0.70;;;;;;;16.93;100.00;99129.63;4973354;28;20302;-60
2023/05/23 04:30:57;;;;;;;0.30;0.30;;;;;;;16.97;100.00;99139.69;4973052;28;20261;-60
2023/05/23 04:33:24;;;;;;;0.50;0.50;;;;;;;16.95;100.00;99138.13;4973792;28;20749;-60
2023/05/23 04:35:51;;;;;;;0.63;0.63;;;;;;;17.03;100.00;99141.91;4973897;28;20200;-60
2023/05/23 04:38:20;;;;;;;0.40;0.40;;;;;;;16.98;100.00;99140.53;4973684;28;20207;-60
2023/05/23 04:40:48;;;;;;;0.47;0.47;;;;;;;17.02;100.00;99139.44;4973195;28;20613;-61
2023/05/23 04:43:15;;;;;;;0.60;0.60;;;;;;;17.09;100.00;99138.13;4973093;28;20211;-61
2023/05/23 04:45:42;;;;;;;0.40;0.40;;;;;;;17.07;100.00;99124.44;4972874;28;20210;-60
2023/05/23 04:48:11;;;;;;;3.00;0.63;;;;;;;17.31;100.00;99131.56;4973438;28;20565;-61
2023/05/23 04:50:39;;;;;;;0.40;0.40;;;;;;;17.56;100.00;99140.41;4972614;28;20354;-60
2023/05/23 04:53:06;;;;;;;0.57;0.57;;;;;;;17.75;100.00;99136.56;4973634;28;20212;-60
2023/05/23 04:55:34;;;;;;;0.50;0.50;;;;;;;17.89;100.00;99142.63;4972985;28;20270;-60
2023/05/23 04:58:02;;;;;;;0.50;0.50;;;;;;;17.99;100.00;99144.53;4973841;28;20663;-61
2023/05/23 05:00:29;;;;;;;0.60;0.60;;;;;;;18.21;100.00;99149.16;4972562;28;20199;-62
2023/05/23 05:02:55;;;;;;;0.60;0.60;;;;;;;18.46;100.00;99144.03;4971901;28;20284;-60
2023/05/23 05:05:22;;;;;;;0.60;0.60;;;;;;;18.71;100.00;99141.47;4970799;28;20662;-61
2023/05/23 05:07:49;;;;;;;0.67;0.67;;;;;;;18.91;100.00;99145.31;4972905;28;20200;-61
2023/05/23 05:10:16;;;;;;;0.60;0.60;;;;;;;18.86;98.48;99135.28;4970175;28;20641;-60
2023/05/23 05:12:48;;;;;;;0.50;0.50;;;;;;;18.96;99.79;99153.66;4972039;28;20220;-60
2023/05/23 05:15:16;;;;;;;1.00;1.00;;;;;;;19.15;98.51;99159.25;4971820;28;20232;-60
2023/05/23 05:17:43;;;;;;;0.63;0.63;;;;;;;19.38;98.71;99170.66;4961360;28;20759;-60
2023/05/23 05:20:11;;;;;;;0.60;0.60;;;;;;;19.67;98.92;99166.88;4955936;28;20203;-60
2023/05/23 05:22:39;;;;;;;0.40;0.40;;;;;;;20.03;97.98;99168.59;4957975;28;20282;-60
2023/05/23 05:25:07;;;;;;;0.50;0.50;;;;;;;20.38;94.84;99176.47;4955374;28;20711;-60
2023/05/23 05:27:33;;;;;;;0.37;0.37;;;;;;;20.47;92.78;99175.78;4963600;28;20760;-61
2023/05/23 05:30:04;;;;;;;0.40;0.40;;;;;;;20.72;93.09;99172.16;4959920;28;20240;-60
2023/05/23 05:32:32;;;;;;;0.40;0.40;;;;;;;20.89;89.85;99167.34;4966604;28;20704;-63
2023/05/23 05:34:59;;;;;;;0.50;0.50;;;;;;;21.11;88.87;99173.56;4962599;28;20215;-63
2023/05/23 05:37:26;;;;;;;0.77;0.77;;;;;;;21.18;88.07;99174.75;4962727;28;20626;-64
2023/05/23 05:39:53;;;;;;;0.50;0.50;;;;;;;21.03;86.88;99144.63;4957283;28;20204;-65
2023/05/23 05:42:20;;;;;;;0.30;0.30;;;;;;;21.30;87.16;99173.78;4961299;28;20290;-70
2023/05/23 05:44:47;;;;;;;0.30;0.30;;;;;;;21.53;88.57;99170.22;4956608;28;20219;-69
2023/05/23 05:47:16;;;;;;;0.40;0.40;;;;;;;21.65;85.87;99184.09;4960054;28;20228;-65
2023/05/23 05:49:43;;;;;;;1.23;0.40;;;;;;;21.72;85.12;99175.66;4959059;28;20216;-65
2023/05/23 05:52:09;;;;;;;1.23;0.90;;;;;;;21.63;85.89;99178.97;4959158;28;20282;-65
2023/05/23 05:54:36;;;;;;;0.30;0.30;;;;;;;21.36;86.83;99168.09;4962426;28;20215;-64
2023/05/23 05:57:03;;;;;;;0.40;0.40;;;;;;;21.38;89.15;99171.44;4970321;28;20203;-65
2023/05/23 05:59:30;;;;;;;0.43;0.43;;;;;;;21.54;89.34;99174.50;4972151;28;20682;-65
2023/05/23 06:01:56;;;;;;;0.53;0.53;;;;;;;21.51;89.46;99171.28;4965025;28;20213;-65
2023/05/23 06:04:25;;;;;;;0.30;0.30;;;;;;;21.60;88.96;99175.78;4960069;28;20223;-65
2023/05/23 06:06:51;;;;;;;0.43;0.43;;;;;;;21.42;88.24;99157.22;4970039;28;20207;-65
2023/05/23 06:09:18;;;;;;;0.53;0.53;;;;;;;21.39;89.17;99160.88;4971147;28;20297;-65
2023/05/23 06:11:45;;;;;;;0.40;0.40;;;;;;;21.56;89.53;99172.59;4970287;28;20223;-64
2023/05/23 06:14:12;;;;;;;0.50;0.50;;;;;;;21.44;88.54;99160.50;4961209;28;20204;-64
2023/05/23 06:16:39;;;;;;;0.30;0.30;;;;;;;21.24;87.95;99164.66;4963742;28;20204;-63
2023/05/23 06:19:06;;;;;;;0.37;0.37;;;;;;;21.28;90.55;99160.06;4968052;28;20211;-63
2023/05/23 06:21:35;;;;;;;1.37;0.60;;;;;;;21.55;93.96;99157.88;4960841;28;20200;-64
2023/05/23 06:24:01;;;;;;;0.53;0.53;;;;;;;21.83;91.52;99162.59;4961498;28;20652;-64
2023/05/23 06:26:28;;;;;;;0.40;0.40;;;;;;;22.17;91.11;99159.88;4954024;28;20267;-64
2023/05/23 06:28:55;;;;;;;0.40;0.40;;;;;;;22.39;84.75;99172.88;4969238;28;20672;-64
2023/05/23 06:31:22;;;;;;;0.40;0.40;;;;;;;22.33;84.14;99160.28;4971689;28;20717;-64
2023/05/23 06:33:48;;;;;;;0.37;0.37;;;;;;;22.54;85.41;99161.13;4968799;28;20215;-65
2023/05/23 06:36:15;;;;;;;0.50;0.50;;;;;;;22.70;83.93;99166.78;4969736;28;20271;-65
2023/05/23 06:38:43;;;;;;;0.50;0.50;;;;;;;22.92;84.41;99171.84;4969543;28;20638;-63
2023/05/23 06:41:10;;;;;;;0.37;0.37;;;;;;;23.19;86.16;99155.59;4969532;28;20258;-63
2023/05/23 06:43:36;;;;;;;0.40;0.40;;;;;;;23.38;82.85;99163.53;4970046;28;20207;-64
2023/05/23 06:46:03;;;;;;;0.53;0.53;;;;;;;23.49;83.31;99168.66;4969501;28;20266;-64
2023/05/23 06:48:30;;;;;;;0.40;0.40;;;;;;;23.65;81.35;99172.59;4969698;28;20204;-65
2023/05/23 06:50:57;;;;;;;0.43;0.43;;;;;;;24.00;84.08;99165.91;4969884;28;20622;-64
2023/05/23 06:53:23;;;;;;;0.30;0.30;;;;;;;24.21;81.43;99168.41;4969950;28;20243;-64
2023/05/23 06:55:52;;;;;;;0.53;0.53;;;;;;;24.22;75.89;99161.38;4969190;28;20207;-63
2023/05/23 06:58:18;;;;;;;0.50;0.50;;;;;;;24.39;79.72;99163.31;4968673;28;20207;-63
2023/05/23 07:00:45;;;;;;;0.40;0.40;;;;;;;24.52;79.55;99156.00;4970397;28;20219;-64
2023/05/23 07:03:12;;;;;;;0.20;0.20;;;;;;;24.75;75.63;99159.94;4972073;28;20235;-64
2023/05/23 07:05:39;;;;;;;0.40;0.40;;;;;;;25.02;73.63;99160.03;4971525;28;20227;-64
2023/05/23 07:08:06;;;;;;;0.30;0.30;;;;;;;25.25;75.16;99157.03;4968944;28;20529;-65
2023/05/23 07:10:34;;;;;;;0.23;0.23;;;;;;;25.45;72.50;99156.81;4964573;28;20215;-64
2023/05/23 07:13:02;;;;;;;0.30;0.30;;;;;;;25.53;69.97;99161.34;4969658;28;20230;-64
2023/05/23 07:15:29;;;;;;;0.30;0.30;;;;;;;25.58;69.17;99154.72;4970174;28;20586;-63
2023/05/23 07:17:55;;;;;;;0.20;0.20;;;;;;;25.71;73.50;99153.53;4969906;28;20713;-64
2023/05/23 07:20:22;;;;;;;0.40;0.40;;;;;;;25.87;72.20;99149.28;4970078;28;20210;-63
2023/05/23 07:22:50;;;;;;;0.30;0.30;;;;;;;26.00;67.30;99157.59;4969591;28;20203;-63
2023/05/23 07:25:17;;;;;;;0.30;0.30;;;;;;;26.26;69.75;99154.25;4972171;28;20614;-64
2023/05/23 07:27:44;;;;;;;0.30;0.30;;;;;;;26.36;69.66;99149.75;4973752;28;20219;-64
2023/05/23 07:30:13;;;;;;;0.40;0.40;;;;;;;26.36;67.44;99152.38;4974236;28;20216;-63
2023/05/23 07:32:39;;;;;;;0.33;0.33;;;;;;;26.21;67.94;99156.50;4974546;28;20230;-63
2023/05/23 07:35:07;;;;;;;0.30;0.30;;;;;;;26.40;71.26;99145.81;4974298;28;20214;-64
2023/05/23 07:37:34;;;;;;;0.20;0.20;;;;;;;26.49;68.47;99151.00;4974354;28;20211;-64
2023/05/23 07:40:01;;;;;;;0.20;0.20;;;;;;;26.44;67.24;99136.66;4973743;28;20206;-63
2023/05/23 07:42:27;;;;;;;0.30;0.30;;;;;;;26.75;67.96;99147.56;4973940;28;20292;-63
2023/05/23 07:44:54;;;;;;;0.40;0.40;;;;;;;26.85;68.80;99141.22;4973713;28;20211;-63
2023/05/23 07:47:23;;;;;;;0.23;0.23;;;;;;;27.01;65.26;99145.78;4974596;28;20210;-63
2023/05/23 07:49:50;;;;;;;0.30;0.30;;;;;;;27.18;63.78;99141.41;4973869;28;20211;-64
2023/05/23 07:52:17;;;;;;;0.30;0.30;;;;;;;27.20;60.63;99135.00;4973730;28;20229;-63
2023/05/23 07:54:44;;;;;;;0.20;0.20;;;;;;;27.47;59.96;99145.34;4974006;28;20211;-64
2023/05/23 07:57:11;;;;;;;0.33;0.33;;;;;;;27.71;58.22;99149.03;4973809;28;20215;-63
2023/05/23 07:59:38;;;;;;;0.27;0.27;;;;;;;27.82;60.81;99141.63;4973652;28;20199;-64
2023/05/23 08:02:05;;;;;;;0.33;0.33;;;;;;;27.57;57.42;99142.56;4971062;28;20204;-64
2023/05/23 08:04:33;;;;;;;0.30;0.30;;;;;;;27.64;60.39;99138.31;4959695;28;20211;-64
2023/05/23 08:07:00;;;;;;;0.40;0.40;;;;;;;27.69;60.96;99140.47;4973436;28;20241;-64
2023/05/23 08:09:27;;;;;;;0.30;0.30;;;;;;;27.85;59.60;99133.41;4974040;28;20199;-64
2023/05/23 08:11:53;;;;;;;0.20;0.20;;;;;;;28.05;60.22;99136.56;4972870;28;20778;-64
2023/05/23 08:14:21;;;;;;;0.33;0.33;;;;;;;28.07;57.35;99142.53;4973472;28;20211;-63
2023/05/23 08:16:48;;;;;;;0.30;0.30;;;;;;;28.21;59.07;99143.72;4973571;28;20210;-64
2023/05/23 08:19:15;;;;;;;0.20;0.20;;;;;;;28.44;55.37;99142.03;4971306;28;20208;-64
2023/05/23 08:21:43;;;;;;;0.30;0.30;;;;;;;28.51;55.16;99137.75;4973608;28;20200;-64
2023/05/23 08:24:11;;;;;;;0.20;0.20;;;;;;;28.60;53.20;99136.75;4973504;28;20264;-64
2023/05/23 08:26:38;;;;;;;0.30;0.30;;;;;;;28.51;54.61;99132.47;4974386;28;20206;-65
2023/05/23 08:29:05;;;;;;;0.25;0.25;;;;;;;28.46;51.63;99118.97;4977272;28;20218;-64
2023/05/23 08:31:32;;;;;;;0.32;0.32;;;;;;;28.70;51.74;99132.16;4973981;28;20219;-64
2023/05/23 08:33:59;;;;;;;0.45;0.40;;;;;;;28.59;52.80;99132.47;4974407;28;20659;-64
2023/05/23 08:36:28;;;;;;;0.20;0.20;;;;;;;28.58;50.51;99133.47;4973581;28;20287;-64
2023/05/23 08:38:56;;;;;;;0.30;0.30;;;;;;;28.72;52.11;99129.38;4973278;28;20207;-63
2023/05/23 08:41:24;;;;;;;0.30;0.30;;;;;;;28.39;46.19;99118.00;4974481;28;20211;-64
2023/05/23 08:43:51;;;;;;;0.40;0.40;;;;;;;28.66;51.48;99121.09;4973433;28;20588;-64
2023/05/23 08:46:18;;;;;;;0.40;0.40;;;;;;;28.73;49.15;99123.06;4972987;28;20742;-65
2023/05/23 08:48:51;;;;;;;0.43;0.40;;;;;;;28.89;46.89;99115.94;4972506;28;20262;-63
2023/05/23 08:51:21;;;;;;;0.20;0.20;;;;;;;29.00;42.40;99133.25;4973143;28;20199;-63
2023/05/23 08:53:48;;;;;;;0.20;0.20;;;;;;;28.94;42.11;99126.84;4961212;28;20262;-65
2023/05/23 08:56:16;;;;;;;0.30;0.30;;;;;;;28.60;43.33;99126.19;4973565;28;20204;-64
2023/05/23 08:58:44;;;;;;;0.22;0.22;;;;;;;28.17;43.15;99129.22;4967114;28;20207;-65
2023/05/23 09:01:10;;;;;;;0.28;0.28;;;;;;;28.41;47.06;99126.56;4966566;28;20692;-64
2023/05/23 09:03:37;;;;;;;0.30;0.30;;;;;;;28.39;44.14;99128.53;4959606;28;20211;-64
2023/05/23 09:06:07;;;;;;;0.47;0.47;;;;;;;28.57;47.59;99118.63;4968362;28;20226;-64
2023/05/23 09:08:34;;;;;;;0.53;0.53;;;;;;;28.37;45.81;99125.25;4973845;28;20199;-64
2023/05/23 09:11:02;;;;;;;0.30;0.30;;;;;;;28.13;46.91;99121.63;4975620;28;20673;-64
2023/05/23 09:13:31;;;;;;;0.20;0.20;;;;;;;28.06;46.79;99123.28;4974216;28;20215;-65
2023/05/23 09:16:02;;;;;;;0.40;0.40;;;;;;;27.98;47.51;99125.84;4974573;28;20203;-64
2023/05/23 09:18:33;;;;;;;0.30;0.30;;;;;;;27.76;47.30;99110.69;4972897;28;20702;-64
2023/05/23 09:21:01;;;;;;;0.37;0.37;;;;;;;27.81;44.94;99118.94;4972887;28;20211;-64
2023/05/23 09:23:30;;;;;;;0.40;0.40;;;;;;;27.83;44.86;99127.50;4971364;28;20207;-64
2023/05/23 09:26:01;;;;;;;0.20;0.20;;;;;;;28.00;44.63;99118.63;4970756;28;20321;-70
2023/05/23 09:28:27;;;;;;;0.20;0.20;;;;;;;28.24;46.00;99109.91;4973162;28;20296;-70
2023/05/23 09:30:59;;;;;;;0.20;0.20;;;;;;;28.43;44.70;99114.03;4972818;28;20612;-70
2023/05/23 09:33:33;;;;;;;0.20;0.20;;;;;;;28.50;45.66;99093.91;4970903;28;20263;-64
2023/05/23 09:36:00;;;;;;;0.30;0.30;;;;;;;28.73;42.29;99118.63;4970041;28;20294;-63
2023/05/23 09:38:28;;;;;;;0.30;0.30;;;;;;;28.67;40.22;99116.66;4971031;28;20211;-64
2023/05/23 09:40:56;;;;;;;0.30;0.30;;;;;;;28.69;42.45;99109.41;4972975;28;20262;-64
2023/05/23 09:43:23;;;;;;;0.20;0.20;;;;;;;28.71;40.83;99117.16;4972784;28;20659;-64
2023/05/23 09:45:50;;;;;;;0.30;0.30;;;;;;;28.72;42.70;99113.53;4972840;28;20215;-63
2023/05/23 09:48:18;;;;;;;0.40;0.40;;;;;;;28.91;43.02;99108.69;4973640;28;20208;-64
2023/05/23 09:50:50;;;;;;;0.23;0.23;;;;;;;28.65;43.25;99110.72;4972703;28;20203;-64
2023/05/23 09:53:17;;;;;;;0.20;0.20;;;;;;;28.41;41.10;99110.72;4972913;28;20227;-64
2023/05/23 09:55:43;;;;;;;0.30;0.30;;;;;;;28.54;42.28;99108.41;4970816;28;20206;-64
2023/05/23 09:58:11;;;;;;;0.30;0.30;;;;;;;28.42;41.43;99107.94;4972296;28;20207;-64
2023/05/23 10:00:38;;;;;;;0.30;0.30;;;;;;;28.17;40.74;99107.13;4973615;28;20211;-65
2023/05/23 10:03:11;;;;;;;0.23;0.23;;;;;;;27.57;42.65;99103.06;4973255;28;20203;-65
2023/05/23 10:05:44;;;;;;;0.30;0.30;;;;;;;27.44;45.15;99107.97;4972800;28;20203;-65
2023/05/23 10:08:14;;;;;;;0.40;0.40;;;;;;;27.57;46.17;99100.44;4972121;28;20726;-65
2023/05/23 10:11:31;;;;;;;0.40;0.40;;;;;;;27.87;44.61;99101.63;4972265;28;20207;-65
2023/05/23 10:14:00;;;;;;;0.30;0.30;;;;;;;28.21;45.27;99104.97;4912591;29;20320;-64
2023/05/23 10:16:37;;;;;;;0.33;0.33;;;;;;;28.27;45.54;99108.78;4967077;28;20199;-65
2023/05/23 10:19:10;;;;;;;0.30;0.30;;;;;;;28.24;47.30;99085.38;4969846;28;20701;-65
2023/05/23 10:21:44;;;;;;;0.33;0.33;;;;;;;28.44;46.92;99091.94;4971510;28;20204;-66
2023/05/23 10:24:12;;;;;;;0.40;0.40;;;;;;;28.63;44.87;99096.84;4969083;28;20318;-65
2023/05/23 10:26:38;;;;;;;0.68;0.68;;;;;;;28.61;43.83;99072.47;4971246;28;20195;-65
2023/05/23 10:29:06;;;;;;;0.40;0.40;;;;;;;28.17;45.31;99101.84;4972693;28;20199;-65
2023/05/23 10:31:34;;;;;;;0.22;0.22;;;;;;;28.10;44.84;99092.97;4973951;28;20618;-65
2023/05/23 10:34:10;;;;;;;0.30;0.30;;;;;;;28.03;48.80;99097.22;4972170;28;20299;-66
2023/05/23 10:36:45;;;;;;;0.55;0.55;;;;;;;28.02;44.30;99094.72;4970398;28;20474;-63
2023/05/23 10:39:19;;;;;;;0.30;0.30;;;;;;;28.21;44.78;99072.53;4975368;28;20277;-63
2023/05/23 10:41:51;;;;;;;0.30;0.30;;;;;;;28.37;42.22;99090.97;4970514;28;20211;-63
2023/05/23 10:44:23;;;;;;;0.28;0.28;;;;;;;28.44;44.55;99086.66;4964666;28;20212;-63
2023/05/23 10:46:52;;;;;;;0.30;0.30;;;;;;;28.41;43.82;99084.38;4968734;28;20663;-63
2023/05/23 10:49:19;;;;;;;0.25;0.25;;;;;;;28.54;44.20;99087.31;4959135;28;20737;-63
2023/05/23 10:51:50;;;;;;;0.20;0.20;;;;;;;28.66;41.98;99078.06;4968990;28;20214;-64
2023/05/23 10:54:18;;;;;;;0.35;0.35;;;;;;;28.50;40.44;99093.91;4971072;28;20262;-63
2023/05/23 10:56:45;;;;;;;0.30;0.30;;;;;;;28.15;40.47;99101.19;4972127;28;20203;-63
2023/05/23 10:59:21;;;;;;;0.40;0.40;;;;;;;28.24;41.42;99095.94;4970325;28;20624;-63
2023/05/23 11:01:51;;;;;;;0.23;0.23;;;;;;;28.43;43.69;99085.03;4968409;28;20293;-63
2023/05/23 11:04:25;;;;;;;0.83;0.83;;;;;;;27.85;41.84;99070.19;4972902;28;20203;-63
2023/05/23 11:06:55;;;;;;;0.30;0.30;;;;;;;27.70;42.03;99089.44;4971462;28;20607;-63
2023/05/23 11:09:23;;;;;;;0.30;0.30;;;;;;;27.89;44.02;99094.38;4972783;28;20567;-64
2023/05/23 11:12:01;;;;;;;0.20;0.20;;;;;;;27.98;44.06;99098.69;4971148;28;20221;-63
2023/05/23 11:14:50;;;;;;;0.20;0.20;;;;;;;28.07;42.20;99088.03;4969659;28;20198;-63
2023/05/23 11:17:17;;;;;;;0.30;0.30;;;;;;;28.19;42.91;99095.59;4970162;28;20204;-63
2023/05/23 11:19:56;;;;;;;0.20;0.20;;;;;;;28.30;44.37;99087.34;4971234;28;20714;-63
2023/05/23 11:22:27;;;;;;;0.30;0.30;;;;;;;28.30;43.13;99085.53;4970129;28;20250;-63
2023/05/23 11:24:55;;;;;;;0.30;0.30;;;;;;;28.29;42.97;99088.34;4969849;28;20227;-63
2023/05/23 11:27:30;;;;;;;0.30;0.30;;;;;;;28.03;43.18;99091.94;4971201;28;20227;-62
2023/05/23 11:30:03;;;;;;;0.33;0.33;;;;;;;27.69;45.19;99087.81;4972035;28;20209;-63
2023/05/23 11:32:30;;;;;;;0.30;0.30;;;;;;;27.66;45.21;99093.41;4970521;28;20227;-63
2023/05/23 11:35:00;;;;;;;0.27;0.27;;;;;;;27.58;44.67;99091.56;4970844;28;20294;-63